createdAt,value
2016-03-01T00:00:20.716Z,0
2016-03-01T00:01:20.671Z,0
2016-03-01T00:02:20.643Z,0
2016-03-01T00:03:20.614Z,0
2016-03-01T00:04:20.570Z,0
2016-03-01T00:05:20.542Z,0
2016-03-01T00:06:20.513Z,0
2016-03-01T00:07:20.468Z,0
2016-03-01T00:08:20.424Z,0
2016-03-01T00:09:20.412Z,0
2016-03-01T00:10:20.367Z,0
2016-03-01T00:11:20.354Z,0
2016-03-01T00:12:20.326Z,0
2016-03-01T00:13:20.266Z,0
2016-03-01T00:14:20.237Z,0
2016-03-01T00:15:20.225Z,0
2016-03-01T00:16:20.164Z,0
2016-03-01T00:17:20.137Z,0
2016-03-01T00:18:20.108Z,0
2016-03-01T00:19:20.064Z,0
2016-03-01T00:20:20.050Z,0
2016-03-01T00:21:20.007Z,0
2016-03-01T00:22:19.962Z,0
2016-03-01T00:23:19.950Z,0
2016-03-01T00:24:19.890Z,0
2016-03-01T00:25:19.892Z,0
2016-03-01T00:26:19.848Z,0
2016-03-01T00:27:19.803Z,0
2016-03-01T00:28:19.775Z,0
2016-03-01T00:29:19.762Z,0
2016-03-01T00:30:19.705Z,0
2016-03-01T00:31:19.552Z,0
2016-03-01T00:32:19.663Z,0
2016-03-01T00:33:19.588Z,0
2016-03-01T00:34:19.575Z,0
2016-03-01T00:35:19.531Z,0
2016-03-01T00:36:19.503Z,0
2016-03-01T00:37:19.474Z,0
2016-03-01T00:38:19.430Z,0
2016-03-01T00:39:19.385Z,0
2016-03-01T00:40:19.373Z,0
2016-03-01T00:41:19.344Z,0
2016-03-01T00:42:19.285Z,0
2016-03-01T00:43:19.271Z,0
2016-03-01T00:44:19.244Z,0
2016-03-01T00:45:19.199Z,0
2016-03-01T00:46:19.171Z,0
2016-03-01T00:47:19.173Z,0
2016-03-01T00:48:19.082Z,0
2016-03-01T00:49:19.053Z,0
2016-03-01T00:50:19.025Z,0
2016-03-01T00:51:18.981Z,0
2016-03-01T00:52:18.971Z,0
2016-03-01T00:53:18.912Z,0
2016-03-01T00:54:18.883Z,0
2016-03-01T00:55:18.870Z,0
2016-03-01T00:56:18.826Z,0
2016-03-01T00:57:18.782Z,0
2016-03-01T00:58:18.785Z,0
2016-03-01T00:59:18.710Z,0
2016-03-01T01:00:18.696Z,0
2016-03-01T01:01:18.667Z,0
2016-03-01T01:02:18.624Z,0
2016-03-01T01:03:18.596Z,0
2016-03-01T01:04:18.582Z,0
2016-03-01T01:05:18.523Z,0
2016-03-01T01:06:18.478Z,0
2016-03-01T01:07:18.465Z,0
2016-03-01T01:08:18.468Z,0
2016-03-01T01:09:18.456Z,0
2016-03-01T01:10:18.364Z,0
2016-03-01T01:11:18.320Z,0
2016-03-01T01:12:18.291Z,0
2016-03-01T01:13:18.262Z,0
2016-03-01T01:14:18.218Z,0
2016-03-01T01:15:18.174Z,0
2016-03-01T01:16:18.161Z,0
2016-03-01T01:17:18.117Z,0
2016-03-01T01:18:18.088Z,0
2016-03-01T01:19:18.044Z,0
2016-03-01T01:20:18.015Z,0
2016-03-01T01:21:18.003Z,0
2016-03-01T01:22:17.944Z,0
2016-03-01T01:23:17.914Z,0
2016-03-01T01:24:17.886Z,0
2016-03-01T01:25:17.873Z,0
2016-03-01T01:26:17.813Z,0
2016-03-01T01:27:17.800Z,0
2016-03-01T01:28:17.787Z,0
2016-03-01T01:29:17.712Z,0
2016-03-01T01:30:17.682Z,0
2016-03-01T01:31:17.639Z,0
2016-03-01T01:32:17.610Z,0
2016-03-01T01:33:17.582Z,0
2016-03-01T01:34:17.538Z,0
2016-03-01T01:35:17.525Z,0
2016-03-01T01:36:17.481Z,0
2016-03-01T01:37:17.451Z,0
2016-03-01T01:38:17.424Z,0
2016-03-01T01:39:17.426Z,0
2016-03-01T01:40:17.351Z,0
2016-03-01T01:41:17.307Z,0
2016-03-01T01:42:17.278Z,0
2016-03-01T01:43:17.281Z,0
2016-03-01T01:44:17.220Z,0
2016-03-01T01:45:17.177Z,0
2016-03-01T01:46:17.148Z,0
2016-03-01T01:47:17.151Z,0
2016-03-01T01:48:17.075Z,0
2016-03-01T01:49:17.063Z,0
2016-03-01T01:50:17.018Z,0
2016-03-01T01:51:16.974Z,0
2016-03-01T01:52:16.930Z,0
2016-03-01T01:53:16.933Z,0
2016-03-01T01:54:16.872Z,0
2016-03-01T01:55:16.844Z,0
2016-03-01T01:56:16.831Z,0
2016-03-01T01:57:16.772Z,0
2016-03-01T01:58:16.758Z,0
2016-03-01T01:59:16.730Z,0
2016-03-01T02:00:16.670Z,0
2016-03-01T02:01:16.641Z,0
2016-03-01T02:02:16.613Z,0
2016-03-01T02:03:16.585Z,0
2016-03-01T02:04:16.587Z,0
2016-03-01T02:05:16.418Z,0
2016-03-01T02:06:16.484Z,0
2016-03-01T02:07:16.440Z,0
2016-03-01T02:08:16.410Z,0
2016-03-01T02:09:16.382Z,0
2016-03-01T02:10:16.337Z,0
2016-03-01T02:11:16.325Z,0
2016-03-01T02:12:16.265Z,0
2016-03-01T02:13:16.237Z,0
2016-03-01T02:14:16.208Z,0
2016-03-01T02:15:16.164Z,0
2016-03-01T02:16:16.150Z,0
2016-03-01T02:17:16.138Z,0
2016-03-01T02:18:16.062Z,0
2016-03-01T02:19:16.033Z,0
2016-03-01T02:20:16.036Z,0
2016-03-01T02:21:15.957Z,0
2016-03-01T02:22:16.302Z,0
2016-03-01T02:23:16.912Z,0
2016-03-01T02:24:21.274Z,0
2016-03-01T02:25:16.010Z,0
2016-03-01T02:26:15.780Z,0
2016-03-01T02:27:15.750Z,0
2016-03-01T02:28:15.753Z,0
2016-03-01T02:29:15.678Z,0
2016-03-01T02:30:15.650Z,0
2016-03-01T02:31:15.230Z,0
2016-03-01T02:32:15.608Z,0
2016-03-01T02:33:15.563Z,0
2016-03-01T02:34:15.519Z,0
2016-03-01T02:35:15.491Z,0
2016-03-01T02:36:15.478Z,0
2016-03-01T02:37:15.402Z,0
2016-03-01T02:38:15.389Z,0
2016-03-01T02:39:15.377Z,0
2016-03-01T02:40:15.317Z,0
2016-03-01T02:41:15.304Z,0
2016-03-01T02:42:15.245Z,0
2016-03-01T02:43:15.200Z,0
2016-03-01T02:44:15.187Z,0
2016-03-01T02:45:14.986Z,0
2016-03-01T02:46:15.130Z,0
2016-03-01T02:47:15.086Z,0
2016-03-01T02:48:15.026Z,0
2016-03-01T02:49:14.997Z,0
2016-03-01T02:50:15.016Z,0
2016-03-01T02:51:14.940Z,0
2016-03-01T02:52:14.896Z,0
2016-03-01T02:53:14.883Z,0
2016-03-01T02:54:14.823Z,0
2016-03-01T02:55:14.794Z,0
2016-03-01T02:56:14.782Z,0
2016-03-01T02:57:14.738Z,0
2016-03-01T02:58:14.725Z,0
2016-03-01T02:59:14.696Z,0
2016-03-01T03:00:14.652Z,0
2016-03-01T03:01:14.623Z,0
2016-03-01T03:02:14.548Z,0
2016-03-01T03:03:14.519Z,0
2016-03-01T03:04:14.491Z,0
2016-03-01T03:05:14.462Z,0
2016-03-01T03:06:14.434Z,0
2016-03-01T03:07:14.374Z,0
2016-03-01T03:08:14.361Z,0
2016-03-01T03:09:14.317Z,0
2016-03-01T03:10:14.288Z,0
2016-03-01T03:11:14.259Z,0
2016-03-01T03:12:14.215Z,0
2016-03-01T03:13:14.171Z,0
2016-03-01T03:14:14.142Z,0
2016-03-01T03:15:14.114Z,0
2016-03-01T03:16:14.148Z,0
2016-03-01T03:17:14.054Z,0
2016-03-01T03:18:14.009Z,0
2016-03-01T03:19:13.966Z,0
2016-03-01T03:20:13.937Z,0
2016-03-01T03:21:13.892Z,0
2016-03-01T03:22:13.864Z,0
2016-03-01T03:23:13.852Z,0
2016-03-01T03:24:13.808Z,0
2016-03-01T03:25:13.763Z,0
2016-03-01T03:26:13.767Z,0
2016-03-01T03:27:13.691Z,0
2016-03-01T03:28:13.662Z,0
2016-03-01T03:29:13.649Z,0
2016-03-01T03:30:13.589Z,0
2016-03-01T03:31:13.435Z,0
2016-03-01T03:32:13.563Z,0
2016-03-01T03:33:13.488Z,0
2016-03-01T03:34:13.475Z,0
2016-03-01T03:35:13.415Z,0
2016-03-01T03:36:13.387Z,0
2016-03-01T03:37:13.374Z,0
2016-03-01T03:38:13.313Z,0
2016-03-01T03:39:13.286Z,0
2016-03-01T03:40:13.273Z,0
2016-03-01T03:41:13.213Z,0
2016-03-01T03:42:13.184Z,0
2016-03-01T03:43:13.187Z,0
2016-03-01T03:44:13.112Z,0
2016-03-01T03:45:13.083Z,0
2016-03-01T03:46:13.054Z,0
2016-03-01T03:47:13.026Z,0
2016-03-01T03:48:12.965Z,0
2016-03-01T03:49:12.937Z,0
2016-03-01T03:50:12.908Z,0
2016-03-01T03:51:12.865Z,0
2016-03-01T03:52:12.867Z,0
2016-03-01T03:53:12.823Z,0
2016-03-01T03:54:12.763Z,0
2016-03-01T03:55:12.734Z,0
2016-03-01T03:56:12.705Z,0
2016-03-01T03:57:12.662Z,0
2016-03-01T03:58:12.634Z,0
2016-03-01T03:59:12.589Z,0
2016-03-01T04:00:12.544Z,0
2016-03-01T04:01:12.547Z,0
2016-03-01T04:02:12.488Z,0
2016-03-01T04:03:12.491Z,0
2016-03-01T04:04:12.416Z,0
2016-03-01T04:05:12.402Z,0
2016-03-01T04:06:12.374Z,0
2016-03-01T04:07:12.313Z,0
2016-03-01T04:08:12.348Z,0
2016-03-01T04:09:12.240Z,0
2016-03-01T04:10:12.213Z,0
2016-03-01T04:11:12.179Z,0
2016-03-01T04:12:12.151Z,0
2016-03-01T04:13:12.122Z,0
2016-03-01T04:14:12.062Z,0
2016-03-01T04:15:12.049Z,0
2016-03-01T04:16:12.005Z,0
2016-03-01T04:17:11.976Z,0
2016-03-01T04:18:11.963Z,0
2016-03-01T04:19:11.904Z,0
2016-03-01T04:20:11.859Z,0
2016-03-01T04:21:11.847Z,0
2016-03-01T04:22:11.787Z,0
2016-03-01T04:23:11.774Z,0
2016-03-01T04:24:11.745Z,0
2016-03-01T04:25:11.701Z,0
2016-03-01T04:26:11.673Z,0
2016-03-01T04:27:11.629Z,0
2016-03-01T04:28:11.584Z,0
2016-03-01T04:29:11.572Z,0
2016-03-01T04:30:11.511Z,0
2016-03-01T04:31:11.483Z,0
2016-03-01T04:32:11.298Z,0
2016-03-01T04:33:11.411Z,0
2016-03-01T04:34:11.398Z,0
2016-03-01T04:35:11.338Z,0
2016-03-01T04:36:11.309Z,0
2016-03-01T04:37:11.296Z,0
2016-03-01T04:38:11.236Z,0
2016-03-01T04:39:11.208Z,0
2016-03-01T04:40:11.194Z,0
2016-03-01T04:41:11.135Z,0
2016-03-01T04:42:11.107Z,0
2016-03-01T04:43:11.077Z,0
2016-03-01T04:44:11.049Z,0
2016-03-01T04:45:11.005Z,0
2016-03-01T04:46:10.961Z,0
2016-03-01T04:47:10.916Z,0
2016-03-01T04:48:10.904Z,0
2016-03-01T04:49:10.859Z,0
2016-03-01T04:50:10.831Z,0
2016-03-01T04:51:10.895Z,0
2016-03-01T04:52:10.587Z,0
2016-03-01T04:53:10.714Z,0
2016-03-01T04:54:10.701Z,0
2016-03-01T04:55:10.641Z,0
2016-03-01T04:56:10.612Z,0
2016-03-01T04:57:10.615Z,0
2016-03-01T04:58:10.540Z,0
2016-03-01T04:59:10.528Z,0
2016-03-01T05:00:10.498Z,0
2016-03-01T05:01:10.439Z,0
2016-03-01T05:02:10.410Z,0
2016-03-01T05:03:10.381Z,0
2016-03-01T05:04:10.336Z,0
2016-03-01T05:05:10.294Z,0
2016-03-01T05:06:10.280Z,0
2016-03-01T05:07:10.220Z,0
2016-03-01T05:08:10.208Z,0
2016-03-01T05:09:10.163Z,0
2016-03-01T05:10:10.135Z,0
2016-03-01T05:11:10.105Z,0
2016-03-01T05:12:10.062Z,0
2016-03-01T05:13:10.018Z,0
2016-03-01T05:14:10.005Z,0
2016-03-01T05:15:09.945Z,0
2016-03-01T05:16:09.916Z,0
2016-03-01T05:17:09.904Z,0
2016-03-01T05:18:09.860Z,0
2016-03-01T05:19:09.814Z,0
2016-03-01T05:20:09.775Z,0
2016-03-01T05:21:09.719Z,0
2016-03-01T05:22:09.664Z,0
2016-03-01T05:23:09.656Z,0
2016-03-01T05:24:09.585Z,0
2016-03-01T05:25:09.552Z,0
2016-03-01T05:26:09.535Z,0
2016-03-01T05:27:09.471Z,0
2016-03-01T05:28:09.423Z,0
2016-03-01T05:29:09.406Z,0
2016-03-01T05:30:09.361Z,0
2016-03-01T05:31:09.330Z,0
2016-03-01T05:32:09.269Z,0
2016-03-01T05:33:09.254Z,0
2016-03-01T05:34:09.193Z,0
2016-03-01T05:35:09.164Z,0
2016-03-01T05:36:09.167Z,0
2016-03-01T05:37:09.090Z,0
2016-03-01T05:38:09.077Z,0
2016-03-01T05:39:09.032Z,0
2016-03-01T05:40:08.987Z,0
2016-03-01T05:41:08.991Z,0
2016-03-01T05:42:08.931Z,0
2016-03-01T05:43:08.901Z,0
2016-03-01T05:44:08.872Z,0
2016-03-01T05:45:08.813Z,0
2016-03-01T05:46:08.800Z,0
2016-03-01T05:47:08.803Z,0
2016-03-01T05:48:08.742Z,0
2016-03-01T05:49:08.683Z,0
2016-03-01T05:50:08.654Z,0
2016-03-01T05:51:08.625Z,0
2016-03-01T05:52:08.581Z,0
2016-03-01T05:53:08.552Z,0
2016-03-01T05:54:08.540Z,0
2016-03-01T05:55:08.480Z,0
2016-03-01T05:56:08.452Z,0
2016-03-01T05:57:08.438Z,0
2016-03-01T05:58:08.362Z,0
2016-03-01T05:59:08.351Z,0
2016-03-01T06:00:08.321Z,0
2016-03-01T06:01:08.262Z,0
2016-03-01T06:02:08.234Z,0
2016-03-01T06:03:08.204Z,5
2016-03-01T06:04:08.176Z,5
2016-03-01T06:05:08.132Z,5
2016-03-01T06:06:08.103Z,10
2016-03-01T06:07:08.059Z,10
2016-03-01T06:08:08.031Z,10
2016-03-01T06:09:07.986Z,15
2016-03-01T06:10:07.958Z,15
2016-03-01T06:11:07.772Z,15
2016-03-01T06:12:07.901Z,20
2016-03-01T06:13:07.872Z,20
2016-03-01T06:14:07.828Z,20
2016-03-01T06:15:07.784Z,25
2016-03-01T06:16:07.755Z,25
2016-03-01T06:17:07.711Z,25
2016-03-01T06:18:07.682Z,30
2016-03-01T06:19:07.638Z,30
2016-03-01T06:20:07.610Z,35
2016-03-01T06:21:07.581Z,35
2016-03-01T06:22:07.552Z,40
2016-03-01T06:23:07.524Z,40
2016-03-01T06:24:07.479Z,45
2016-03-01T06:25:07.436Z,50
2016-03-01T06:26:07.438Z,50
2016-03-01T06:27:07.379Z,55
2016-03-01T06:28:07.335Z,55
2016-03-01T06:29:07.321Z,60
2016-03-01T06:30:07.277Z,65
2016-03-01T06:31:07.249Z,65
2016-03-01T06:32:07.251Z,70
2016-03-01T06:33:07.160Z,75
2016-03-01T06:34:07.163Z,80
2016-03-01T06:35:07.103Z,85
2016-03-01T06:36:07.075Z,90
2016-03-01T06:37:07.030Z,95
2016-03-01T06:38:06.987Z,95
2016-03-01T06:39:06.958Z,100
2016-03-01T06:40:06.929Z,105
2016-03-01T06:41:06.884Z,115
2016-03-01T06:42:06.887Z,115
2016-03-01T06:43:06.828Z,115
2016-03-01T06:44:06.800Z,120
2016-03-01T06:45:06.755Z,120
2016-03-01T06:46:06.727Z,125
2016-03-01T06:47:06.698Z,130
2016-03-01T06:48:06.669Z,130
2016-03-01T06:49:06.625Z,135
2016-03-01T06:50:06.596Z,140
2016-03-01T06:51:06.552Z,145
2016-03-01T06:52:06.524Z,145
2016-03-01T06:53:06.495Z,150
2016-03-01T06:54:06.466Z,150
2016-03-01T06:55:06.422Z,155
2016-03-01T06:56:06.394Z,155
2016-03-01T06:57:06.350Z,160
2016-03-01T06:58:06.352Z,160
2016-03-01T06:59:06.340Z,160
2016-03-01T07:00:06.280Z,160
2016-03-01T07:01:06.267Z,165
2016-03-01T07:02:06.238Z,165
2016-03-01T07:03:06.163Z,170
2016-03-01T07:04:06.119Z,170
2016-03-01T07:05:06.090Z,175
2016-03-01T07:06:06.062Z,175
2016-03-01T07:07:06.033Z,180
2016-03-01T07:08:05.989Z,180
2016-03-01T07:09:05.945Z,180
2016-03-01T07:10:05.932Z,185
2016-03-01T07:11:05.887Z,185
2016-03-01T07:12:05.875Z,185
2016-03-01T07:13:05.830Z,190
2016-03-01T07:14:05.787Z,190
2016-03-01T07:15:05.758Z,195
2016-03-01T07:16:05.714Z,195
2016-03-01T07:17:05.716Z,200
2016-03-01T07:18:05.672Z,200
2016-03-01T07:19:05.628Z,200
2016-03-01T07:20:05.614Z,205
2016-03-01T07:21:05.555Z,205
2016-03-01T07:22:05.558Z,205
2016-03-01T07:23:05.530Z,210
2016-03-01T07:24:05.469Z,210
2016-03-01T07:25:05.519Z,215
2016-03-01T07:26:05.412Z,220
2016-03-01T07:27:05.369Z,225
2016-03-01T07:28:05.402Z,230
2016-03-01T07:29:05.327Z,235
2016-03-01T07:30:05.266Z,235
2016-03-01T07:31:05.238Z,240
2016-03-01T07:32:05.225Z,245
2016-03-01T07:33:05.181Z,245
2016-03-01T07:34:05.168Z,245
2016-03-01T07:35:05.124Z,250
2016-03-01T07:36:05.079Z,250
2016-03-01T07:37:05.082Z,255
2016-03-01T07:38:05.007Z,255
2016-03-01T07:39:04.978Z,255
2016-03-01T07:40:04.981Z,260
2016-03-01T07:41:04.906Z,260
2016-03-01T07:42:04.893Z,265
2016-03-01T07:43:04.881Z,270
2016-03-01T07:44:04.820Z,270
2016-03-01T07:45:04.791Z,275
2016-03-01T07:46:04.778Z,280
2016-03-01T07:47:04.734Z,280
2016-03-01T07:48:04.675Z,280
2016-03-01T07:49:04.647Z,285
2016-03-01T07:50:04.680Z,285
2016-03-01T07:51:04.619Z,285
2016-03-01T07:52:04.561Z,290
2016-03-01T07:53:04.547Z,295
2016-03-01T07:54:04.488Z,300
2016-03-01T07:55:04.490Z,305
2016-03-01T07:56:04.446Z,310
2016-03-01T07:57:04.433Z,315
2016-03-01T07:58:04.373Z,320
2016-03-01T07:59:04.189Z,325
2016-03-01T08:00:04.316Z,330
2016-03-01T08:01:04.271Z,335
2016-03-01T08:02:04.274Z,340
2016-03-01T08:03:04.215Z,345
2016-03-01T08:04:04.187Z,345
2016-03-01T08:05:04.173Z,350
2016-03-01T08:06:04.113Z,350
2016-03-01T08:07:04.101Z,355
2016-03-01T08:08:04.103Z,360
2016-03-01T08:09:04.028Z,360
2016-03-01T08:10:03.999Z,365
2016-03-01T08:11:03.971Z,370
2016-03-01T08:12:03.942Z,370
2016-03-01T08:13:03.898Z,375
2016-03-01T08:14:04.042Z,380
2016-03-01T08:15:03.841Z,380
2016-03-01T08:16:03.812Z,380
2016-03-01T08:17:03.814Z,385
2016-03-01T08:18:03.756Z,390
2016-03-01T08:19:03.773Z,395
2016-03-01T08:20:03.683Z,400
2016-03-01T08:21:03.154Z,400
2016-03-01T08:22:03.641Z,400
2016-03-01T08:23:03.597Z,405
2016-03-01T08:24:03.568Z,410
2016-03-01T08:25:03.524Z,415
2016-03-01T08:26:03.511Z,415
2016-03-01T08:27:03.482Z,420
2016-03-01T08:28:03.454Z,420
2016-03-01T08:29:03.410Z,420
2016-03-01T08:30:03.412Z,425
2016-03-01T08:31:03.368Z,430
2016-03-01T08:32:03.324Z,435
2016-03-01T08:33:03.296Z,440
2016-03-01T08:34:03.267Z,445
2016-03-01T08:35:03.223Z,450
2016-03-01T08:36:03.882Z,455
2016-03-01T08:37:03.182Z,460
2016-03-01T08:38:03.168Z,465
2016-03-01T08:39:03.108Z,465
2016-03-01T08:40:03.080Z,470
2016-03-01T08:41:03.051Z,470
2016-03-01T08:42:03.023Z,470
2016-03-01T08:43:02.979Z,475
2016-03-01T08:44:02.997Z,475
2016-03-01T08:45:02.922Z,475
2016-03-01T08:46:02.955Z,475
2016-03-01T08:47:02.865Z,480
2016-03-01T08:48:02.836Z,480
2016-03-01T08:49:02.822Z,480
2016-03-01T08:50:02.778Z,485
2016-03-01T08:51:02.750Z,495
2016-03-01T08:52:02.722Z,490
2016-03-01T08:53:02.694Z,495
2016-03-01T08:54:02.712Z,495
2016-03-01T08:55:02.620Z,495
2016-03-01T08:56:02.716Z,500
2016-03-01T08:57:02.580Z,500
2016-03-01T08:58:02.550Z,505
2016-03-01T08:59:02.522Z,505
2016-03-01T09:00:02.477Z,510
2016-03-01T09:01:02.496Z,520
2016-03-01T09:02:02.436Z,520
2016-03-01T09:03:02.391Z,530
2016-03-01T09:04:02.379Z,535
2016-03-01T09:05:02.351Z,540
2016-03-01T09:06:02.306Z,540
2016-03-01T09:07:02.277Z,545
2016-03-01T09:08:02.249Z,550
2016-03-01T09:09:02.251Z,550
2016-03-01T09:10:02.614Z,555
2016-03-01T09:11:02.162Z,560
2016-03-01T09:12:02.135Z,565
2016-03-01T09:13:02.122Z,570
2016-03-01T09:14:02.078Z,575
2016-03-01T09:15:02.065Z,580
2016-03-01T09:16:02.036Z,590
2016-03-01T09:17:01.992Z,600
2016-03-01T09:18:01.963Z,610
2016-03-01T09:19:01.967Z,620
2016-03-01T09:20:01.969Z,630
2016-03-01T09:21:01.878Z,640
2016-03-01T09:22:01.849Z,640
2016-03-01T09:23:01.914Z,640
2016-03-01T09:24:01.792Z,645
2016-03-01T09:25:01.763Z,650
2016-03-01T09:26:01.736Z,655
2016-03-01T09:27:01.722Z,665
2016-03-01T09:28:01.708Z,670
2016-03-01T09:29:01.665Z,675
2016-03-01T09:30:01.621Z,675
2016-03-01T09:31:01.608Z,680
2016-03-01T09:32:01.579Z,685
2016-03-01T09:33:01.910Z,690
2016-03-01T09:34:01.538Z,695
2016-03-01T09:35:01.587Z,695
2016-03-01T09:36:01.465Z,695
2016-03-01T09:37:01.437Z,700
2016-03-01T09:38:01.440Z,705
2016-03-01T09:39:01.395Z,705
2016-03-01T09:40:01.366Z,705
2016-03-01T09:41:01.338Z,710
2016-03-01T09:42:01.309Z,710
2016-03-01T09:43:01.280Z,715
2016-03-01T09:44:01.251Z,715
2016-03-01T09:45:01.223Z,715
2016-03-01T09:46:01.195Z,715
2016-03-01T09:47:01.166Z,715
2016-03-01T09:48:01.170Z,715
2016-03-01T09:49:01.125Z,710
2016-03-01T09:50:01.221Z,710
2016-03-01T09:51:01.052Z,705
2016-03-01T09:52:01.055Z,710
2016-03-01T09:53:01.010Z,705
2016-03-01T09:54:01.044Z,705
2016-03-01T09:55:01.125Z,705
2016-03-01T09:56:00.925Z,705
2016-03-01T09:57:00.911Z,705
2016-03-01T09:58:00.884Z,700
2016-03-01T09:59:00.839Z,700
2016-03-01T10:00:00.874Z,700
2016-03-01T10:01:00.797Z,700
2016-03-01T10:02:00.785Z,700
2016-03-01T10:03:00.741Z,705
2016-03-01T10:04:00.727Z,705
2016-03-01T10:05:00.699Z,705
2016-03-01T10:06:00.655Z,710
2016-03-01T10:07:00.471Z,710
2016-03-01T10:08:00.629Z,720
2016-03-01T10:09:00.679Z,725
2016-03-01T10:10:00.557Z,730
2016-03-01T10:11:00.528Z,745
2016-03-01T10:12:00.515Z,740
2016-03-01T10:13:00.487Z,745
2016-03-01T10:14:00.457Z,750
2016-03-01T10:15:00.429Z,755
2016-03-01T10:16:00.400Z,765
2016-03-01T10:17:00.403Z,765
2016-03-01T10:18:00.359Z,770
2016-03-01T10:19:00.330Z,775
2016-03-01T10:20:00.334Z,775
2016-03-01T10:21:00.289Z,775
2016-03-01T10:22:00.244Z,780
2016-03-01T10:23:00.247Z,775
2016-03-01T10:24:00.313Z,780
2016-03-01T10:25:00.206Z,780
2016-03-01T10:26:00.146Z,780
2016-03-01T10:27:00.133Z,775
2016-03-01T10:28:00.105Z,775
2016-03-01T10:29:00.122Z,775
2016-03-01T10:30:00.125Z,775
2016-03-01T10:31:00.035Z,780
2016-03-01T10:32:00.006Z,785
2016-03-01T10:32:59.977Z,790
2016-03-01T10:33:59.949Z,790
2016-03-01T10:34:59.936Z,790
2016-03-01T10:35:59.891Z,790
2016-03-01T10:36:59.894Z,790
2016-03-01T10:37:59.850Z,795
2016-03-01T10:38:59.854Z,790
2016-03-01T10:39:59.793Z,790
2016-03-01T10:40:59.796Z,795
2016-03-01T10:41:59.737Z,795
2016-03-01T10:42:59.723Z,795
2016-03-01T10:43:59.710Z,795
2016-03-01T10:44:59.745Z,795
2016-03-01T10:45:59.685Z,795
2016-03-01T10:46:59.625Z,795
2016-03-01T10:47:59.595Z,795
2016-03-01T10:48:59.693Z,800
2016-03-01T10:49:59.570Z,800
2016-03-01T10:50:59.636Z,795
2016-03-01T10:51:59.498Z,795
2016-03-01T10:52:59.484Z,795
2016-03-01T10:53:59.455Z,800
2016-03-01T10:54:59.442Z,800
2016-03-01T10:55:59.414Z,805
2016-03-01T10:56:59.386Z,810
2016-03-01T10:57:59.372Z,815
2016-03-01T10:58:59.344Z,820
2016-03-01T10:59:59.300Z,820
2016-03-01T11:00:59.443Z,825
2016-03-01T11:01:59.291Z,835
2016-03-01T11:02:59.230Z,830
2016-03-01T11:03:59.202Z,835
2016-03-01T11:04:59.204Z,840
2016-03-01T11:05:59.176Z,845
2016-03-01T11:06:59.132Z,850
2016-03-01T11:07:59.134Z,860
2016-03-01T11:08:59.090Z,855
2016-03-01T11:09:59.077Z,860
2016-03-01T11:10:59.049Z,865
2016-03-01T11:11:58.848Z,865
2016-03-01T11:12:58.991Z,870
2016-03-01T11:13:58.979Z,870
2016-03-01T11:14:58.950Z,870
2016-03-01T11:15:58.906Z,865
2016-03-01T11:16:58.893Z,865
2016-03-01T11:17:58.864Z,860
2016-03-01T11:18:58.836Z,860
2016-03-01T11:19:58.822Z,860
2016-03-01T11:20:58.795Z,865
2016-03-01T11:21:58.781Z,865
2016-03-01T11:22:58.753Z,870
2016-03-01T11:23:58.724Z,875
2016-03-01T11:24:58.711Z,875
2016-03-01T11:25:58.697Z,880
2016-03-01T11:26:58.654Z,885
2016-03-01T11:27:58.625Z,885
2016-03-01T11:28:58.613Z,890
2016-03-01T11:29:58.583Z,890
2016-03-01T11:30:58.571Z,890
2016-03-01T11:31:58.574Z,885
2016-03-01T11:32:58.529Z,885
2016-03-01T11:33:58.517Z,885
2016-03-01T11:34:58.472Z,890
2016-03-01T11:35:58.443Z,895
2016-03-01T11:36:58.415Z,885
2016-03-01T11:37:58.418Z,880
2016-03-01T11:38:58.374Z,890
2016-03-01T11:39:58.360Z,900
2016-03-01T11:40:58.332Z,885
2016-03-01T11:41:58.319Z,885
2016-03-01T11:42:58.337Z,885
2016-03-01T11:43:58.263Z,885
2016-03-01T11:44:58.234Z,885
2016-03-01T11:45:58.221Z,890
2016-03-01T11:46:58.207Z,890
2016-03-01T11:47:58.164Z,895
2016-03-01T11:48:58.151Z,890
2016-03-01T11:49:58.137Z,890
2016-03-01T11:50:58.109Z,890
2016-03-01T11:51:58.081Z,890
2016-03-01T11:52:58.067Z,890
2016-03-01T11:53:58.102Z,885
2016-03-01T11:54:58.011Z,880
2016-03-01T11:55:58.061Z,875
2016-03-01T11:56:57.969Z,875
2016-03-01T11:57:57.941Z,875
2016-03-01T11:58:57.927Z,875
2016-03-01T11:59:57.914Z,870
2016-03-01T12:00:57.885Z,870
2016-03-01T12:01:57.858Z,870
2016-03-01T12:02:58.579Z,870
2016-03-01T12:03:58.066Z,865
2016-03-01T12:04:57.788Z,865
2016-03-01T12:05:57.774Z,865
2016-03-01T12:06:57.747Z,860
2016-03-01T12:07:57.719Z,860
2016-03-01T12:08:57.705Z,865
2016-03-01T12:09:57.677Z,860
2016-03-01T12:10:57.694Z,855
2016-03-01T12:11:57.636Z,855
2016-03-01T12:12:57.607Z,850
2016-03-01T12:13:57.578Z,850
2016-03-01T12:14:57.566Z,850
2016-03-01T12:15:57.552Z,845
2016-03-01T12:16:57.524Z,840
2016-03-01T12:17:57.511Z,835
2016-03-01T12:18:57.482Z,820
2016-03-01T12:19:57.454Z,810
2016-03-01T12:20:57.424Z,795
2016-03-01T12:21:57.428Z,785
2016-03-01T12:22:57.399Z,775
2016-03-01T12:23:57.387Z,770
2016-03-01T12:24:57.358Z,770
2016-03-01T12:25:57.329Z,760
2016-03-01T12:26:57.315Z,760
2016-03-01T12:27:57.115Z,765
2016-03-01T12:28:57.259Z,765
2016-03-01T12:29:57.230Z,775
2016-03-01T12:30:57.217Z,770
2016-03-01T12:31:57.189Z,775
2016-03-01T12:32:57.161Z,770
2016-03-01T12:33:57.148Z,770
2016-03-01T12:34:57.119Z,770
2016-03-01T12:35:57.856Z,765
2016-03-01T12:36:57.092Z,765
2016-03-01T12:37:57.050Z,765
2016-03-01T12:38:57.036Z,765
2016-03-01T12:39:57.007Z,750
2016-03-01T12:40:56.995Z,740
2016-03-01T12:41:56.981Z,720
2016-03-01T12:42:56.953Z,705
2016-03-01T12:43:56.925Z,695
2016-03-01T12:44:56.912Z,690
2016-03-01T12:45:56.883Z,680
2016-03-01T12:46:56.870Z,675
2016-03-01T12:47:56.842Z,670
2016-03-01T12:48:56.829Z,670
2016-03-01T12:49:56.800Z,660
2016-03-01T12:50:56.787Z,660
2016-03-01T12:51:56.743Z,660
2016-03-01T12:52:56.730Z,660
2016-03-01T12:53:56.701Z,670
2016-03-01T12:54:56.688Z,670
2016-03-01T12:55:56.660Z,670
2016-03-01T12:56:56.647Z,675
2016-03-01T12:57:56.618Z,675
2016-03-01T12:58:56.605Z,680
2016-03-01T12:59:56.577Z,685
2016-03-01T13:00:56.611Z,690
2016-03-01T13:01:56.520Z,685
2016-03-01T13:02:56.538Z,685
2016-03-01T13:03:56.478Z,680
2016-03-01T13:04:56.450Z,675
2016-03-01T13:05:56.453Z,670
2016-03-01T13:06:56.423Z,665
2016-03-01T13:07:56.395Z,660
2016-03-01T13:08:56.508Z,655
2016-03-01T13:09:56.354Z,655
2016-03-01T13:10:56.341Z,650
2016-03-01T13:11:56.297Z,645
2016-03-01T13:12:56.268Z,645
2016-03-01T13:13:56.256Z,645
2016-03-01T13:14:56.243Z,640
2016-03-01T13:15:56.214Z,635
2016-03-01T13:16:56.186Z,630
2016-03-01T13:17:56.188Z,620
2016-03-01T13:18:56.175Z,610
2016-03-01T13:19:56.130Z,600
2016-03-01T13:20:56.103Z,590
2016-03-01T13:21:56.074Z,580
2016-03-01T13:22:56.373Z,570
2016-03-01T13:23:56.032Z,570
2016-03-01T13:24:56.004Z,565
2016-03-01T13:25:55.991Z,565
2016-03-01T13:26:55.962Z,570
2016-03-01T13:27:55.934Z,565
2016-03-01T13:28:55.904Z,570
2016-03-01T13:29:55.908Z,565
2016-03-01T13:30:55.879Z,560
2016-03-01T13:31:55.865Z,560
2016-03-01T13:32:55.838Z,550
2016-03-01T13:33:55.809Z,540
2016-03-01T13:34:55.781Z,535
2016-03-01T13:35:55.768Z,530
2016-03-01T13:36:55.723Z,530
2016-03-01T13:37:55.711Z,525
2016-03-01T13:38:55.697Z,515
2016-03-01T13:39:55.654Z,505
2016-03-01T13:40:55.625Z,500
2016-03-01T13:41:55.612Z,495
2016-03-01T13:42:55.428Z,485
2016-03-01T13:43:55.591Z,485
2016-03-01T13:44:55.531Z,475
2016-03-01T13:45:55.502Z,465
2016-03-01T13:46:55.489Z,460
2016-03-01T13:47:55.460Z,450
2016-03-01T13:48:55.464Z,450
2016-03-01T13:49:55.685Z,450
2016-03-01T13:50:55.500Z,445
2016-03-01T13:51:55.378Z,445
2016-03-01T13:52:55.349Z,440
2016-03-01T13:53:55.337Z,440
2016-03-01T13:54:55.293Z,440
2016-03-01T13:55:55.310Z,440
2016-03-01T13:56:55.266Z,435
2016-03-01T13:57:55.269Z,430
2016-03-01T13:58:55.193Z,425
2016-03-01T13:59:55.181Z,415
2016-03-01T14:00:55.168Z,415
2016-03-01T14:01:55.124Z,405
2016-03-01T14:02:55.112Z,395
2016-03-01T14:03:55.082Z,390
2016-03-01T14:04:55.053Z,385
2016-03-01T14:05:55.025Z,385
2016-03-01T14:06:55.028Z,385
2016-03-01T14:07:55.000Z,380
2016-03-01T14:08:54.970Z,370
2016-03-01T14:09:54.942Z,365
2016-03-01T14:10:54.913Z,360
2016-03-01T14:11:54.885Z,355